createdAt,value
2023-10-04T00:01:00.326Z,95819.85
2023-10-04T00:02:20.559Z,95816.84
2023-10-04T00:03:25.967Z,95818.34
2023-10-04T00:04:31.470Z,95819.40
2023-10-04T00:05:37.641Z,95818.09
2023-10-04T00:06:41.689Z,95822.63
2023-10-04T00:07:48.458Z,95823.58
2023-10-04T00:08:53.108Z,95823.61
2023-10-04T00:09:58.034Z,95823.45
2023-10-04T00:11:04.343Z,95821.84
2023-10-04T00:12:09.500Z,95822.10
2023-10-04T00:13:14.215Z,95819.91
2023-10-04T00:14:18.068Z,95820.76
2023-10-04T00:15:26.379Z,95818.61
2023-10-04T00:16:33.420Z,95816.73
2023-10-04T00:17:41.220Z,95819.05
2023-10-04T00:18:44.639Z,95815.96
2023-10-04T00:19:48.404Z,95815.30
2023-10-04T00:20:51.847Z,95811.88
2023-10-04T00:21:55.773Z,95814.50
2023-10-04T00:22:59.644Z,95810.05
2023-10-04T00:24:05.820Z,95811.11
2023-10-04T00:25:12.902Z,95815.41
2023-10-04T00:26:16.674Z,95813.88
2023-10-04T00:27:20.870Z,95812.82
2023-10-04T00:28:25.050Z,95811.60
2023-10-04T00:29:28.851Z,95814.95
2023-10-04T00:30:33.468Z,95814.80
2023-10-04T00:31:38.417Z,95813.73
2023-10-04T00:32:42.015Z,95818.86
2023-10-04T00:33:45.463Z,95818.21
2023-10-04T00:34:48.737Z,95820.02
2023-10-04T00:35:52.106Z,95821.11
2023-10-04T00:36:56.051Z,95819.05
2023-10-04T00:38:02.444Z,95819.00
2023-10-04T00:39:07.977Z,95818.83
2023-10-04T00:40:18.186Z,95822.17
2023-10-04T00:41:23.087Z,95822.10
2023-10-04T00:42:29.154Z,95822.59
2023-10-04T00:43:33.507Z,95818.23
2023-10-04T00:44:37.002Z,95820.09
2023-10-04T00:45:45.603Z,95822.48
2023-10-04T00:46:49.843Z,95821.14
2023-10-04T00:47:59.476Z,95825.61
2023-10-04T00:49:05.860Z,95820.86
2023-10-04T00:50:18.571Z,95821.91
2023-10-04T00:51:24.314Z,95820.25
2023-10-04T00:52:28.697Z,95820.27
2023-10-04T00:53:34.481Z,95817.83
2023-10-04T00:54:38.255Z,95816.28
2023-10-04T00:55:47.706Z,95821.25
2023-10-04T00:56:52.298Z,95823.45
2023-10-04T00:57:58.728Z,95820.73
2023-10-04T00:59:04.974Z,95818.73
2023-10-04T01:00:12.461Z,95819.70
2023-10-04T01:01:16.099Z,95823.91
2023-10-04T01:02:21.427Z,95824.61
2023-10-04T01:03:29.104Z,95822.33
2023-10-04T01:04:33.952Z,95819.46
2023-10-04T01:05:41.977Z,95824.20
2023-10-04T01:06:45.993Z,95818.87
2023-10-04T01:07:50.729Z,95822.57
2023-10-04T01:08:56.320Z,95825.66
2023-10-04T01:09:59.641Z,95824.88
2023-10-04T01:11:03.058Z,95819.60
2023-10-04T01:12:07.269Z,95822.32
2023-10-04T01:13:12.404Z,95820.05
2023-10-04T01:14:24.690Z,95823.25
2023-10-04T01:15:36.850Z,95821.31
2023-10-04T01:16:42.569Z,95819.21
2023-10-04T01:17:46.296Z,95820.48
2023-10-04T01:18:50.537Z,95818.35
2023-10-04T01:19:54.447Z,95821.24
2023-10-04T01:20:58.023Z,95820.61
2023-10-04T01:22:06.976Z,95821.11
2023-10-04T01:23:13.564Z,95823.73
2023-10-04T01:24:18.081Z,95821.58
2023-10-04T01:25:21.673Z,95822.41
2023-10-04T01:26:26.624Z,95826.24
2023-10-04T01:27:30.950Z,95821.58
2023-10-04T01:28:34.712Z,95824.63
2023-10-04T01:29:39.714Z,95827.59
2023-10-04T01:30:45.539Z,95829.25
2023-10-04T01:31:50.454Z,95829.16
2023-10-04T01:32:59.695Z,95830.27
2023-10-04T01:34:03.843Z,95827.66
2023-10-04T01:35:09.070Z,95831.98
2023-10-04T01:36:12.205Z,95831.98
2023-10-04T01:37:16.377Z,95830.73
2023-10-04T01:38:32.668Z,95830.70
2023-10-04T01:39:37.608Z,95831.39
2023-10-04T01:40:43.613Z,95830.81
2023-10-04T01:41:48.452Z,95830.85
2023-10-04T01:42:52.022Z,95831.00
2023-10-04T01:44:02.021Z,95829.17
2023-10-04T01:45:10.314Z,95829.42
2023-10-04T01:46:14.002Z,95829.34
2023-10-04T01:47:20.705Z,95827.72
2023-10-04T01:48:24.322Z,95828.23
2023-10-04T01:49:27.705Z,95828.89
2023-10-04T01:50:31.275Z,95826.77
2023-10-04T01:51:35.725Z,95826.64
2023-10-04T01:52:39.795Z,95830.06
2023-10-04T01:53:44.288Z,95826.42
2023-10-04T01:54:47.708Z,95822.83
2023-10-04T01:55:51.250Z,95824.58
2023-10-04T01:56:56.057Z,95825.89
2023-10-04T01:57:59.484Z,95820.75
2023-10-04T01:59:03.605Z,95824.09
2023-10-04T02:00:18.536Z,95821.84
2023-10-04T02:01:22.299Z,95824.39
2023-10-04T02:02:28.648Z,95822.98
2023-10-04T02:03:34.343Z,95822.27
2023-10-04T02:04:38.422Z,95823.09
2023-10-04T02:05:42.027Z,95823.73
2023-10-04T02:06:45.238Z,95822.52
2023-10-04T02:07:48.853Z,95822.30
2023-10-04T02:08:52.413Z,95820.73
2023-10-04T02:09:56.048Z,95817.23
2023-10-04T02:10:59.943Z,95821.17
2023-10-04T02:12:04.632Z,95819.53
2023-10-04T02:13:10.560Z,95820.79
2023-10-04T02:14:14.385Z,95823.60
2023-10-04T02:15:18.477Z,95820.80
2023-10-04T02:16:21.988Z,95822.98
2023-10-04T02:17:25.925Z,95823.05
2023-10-04T02:18:29.823Z,95821.86
2023-10-04T02:19:33.351Z,95822.25
2023-10-04T02:20:37.984Z,95819.65
2023-10-04T02:21:41.992Z,95823.58
2023-10-04T02:22:45.884Z,95823.59
2023-10-04T02:23:50.480Z,95822.97
2023-10-04T02:24:54.524Z,95826.41
2023-10-04T02:25:58.212Z,95827.78
2023-10-04T02:27:07.785Z,95826.77
2023-10-04T02:28:23.873Z,95830.41
2023-10-04T02:29:27.935Z,95832.74
2023-10-04T02:30:31.527Z,95832.95
2023-10-04T02:31:36.652Z,95837.52
2023-10-04T02:32:41.719Z,95836.55
2023-10-04T02:33:46.865Z,95836.55
2023-10-04T02:34:51.630Z,95837.59
2023-10-04T02:35:57.186Z,95836.14
2023-10-04T02:37:00.518Z,95834.02
2023-10-04T02:38:17.017Z,95836.13
2023-10-04T02:39:25.217Z,95836.90
2023-10-04T02:40:28.637Z,95836.21
2023-10-04T02:41:33.345Z,95834.23
2023-10-04T02:42:37.297Z,95830.98
2023-10-04T02:43:40.925Z,95833.86
2023-10-04T02:44:44.202Z,95835.33
2023-10-04T02:45:49.562Z,95833.84
2023-10-04T02:46:53.230Z,95830.65
2023-10-04T02:47:57.274Z,95831.37
2023-10-04T02:49:01.803Z,95830.67
2023-10-04T02:50:11.570Z,95831.64
2023-10-04T02:51:15.097Z,95830.77
2023-10-04T02:52:18.585Z,95832.77
2023-10-04T02:53:25.483Z,95832.02
2023-10-04T02:54:28.824Z,95830.47
2023-10-04T02:55:32.964Z,95832.27
2023-10-04T02:56:42.571Z,95835.11
2023-10-04T02:57:50.003Z,95833.08
2023-10-04T02:58:53.847Z,95833.92
2023-10-04T02:59:59.268Z,95834.43
2023-10-04T03:01:02.699Z,95833.69
2023-10-04T03:02:06.064Z,95834.59
2023-10-04T03:03:14.755Z,95834.15
2023-10-04T03:04:19.870Z,95835.96
2023-10-04T03:05:24.825Z,95833.63
2023-10-04T03:06:29.076Z,95837.73
2023-10-04T03:07:32.760Z,95836.80
2023-10-04T03:08:36.172Z,95837.11
2023-10-04T03:09:44.177Z,95835.56
2023-10-04T03:10:51.840Z,95837.60
2023-10-04T03:11:55.974Z,95841.63
2023-10-04T03:13:01.854Z,95838.50
2023-10-04T03:14:07.667Z,95843.27
2023-10-04T03:15:13.742Z,95843.06
2023-10-04T03:16:17.700Z,95840.04
2023-10-04T03:17:23.799Z,95841.41
2023-10-04T03:18:27.630Z,95842.11
2023-10-04T03:19:31.625Z,95838.81
2023-10-04T03:20:36.274Z,95840.38
2023-10-04T03:21:46.004Z,95835.91
2023-10-04T03:22:50.752Z,95836.92
2023-10-04T03:23:56.421Z,95841.34
2023-10-04T03:25:01.603Z,95843.96
2023-10-04T03:26:05.072Z,95841.17
2023-10-04T03:27:09.364Z,95838.98
2023-10-04T03:28:14.309Z,95844.82
2023-10-04T03:29:18.606Z,95845.91
2023-10-04T03:30:22.022Z,95845.43
2023-10-04T03:31:25.925Z,95845.39
2023-10-04T03:32:29.861Z,95843.46
2023-10-04T03:33:34.190Z,95845.89
2023-10-04T03:34:39.083Z,95842.67
2023-10-04T03:35:44.651Z,95847.20
2023-10-04T03:36:48.284Z,95846.06
2023-10-04T03:38:03.254Z,95843.52
2023-10-04T03:39:11.404Z,95843.23
2023-10-04T03:40:16.444Z,95846.45
2023-10-04T03:41:22.458Z,95847.23
2023-10-04T03:42:25.867Z,95842.71
2023-10-04T03:43:29.226Z,95844.19
2023-10-04T03:44:32.806Z,95843.64
2023-10-04T03:45:41.069Z,95845.48
2023-10-04T03:46:44.557Z,95846.02
2023-10-04T03:47:51.013Z,95848.58
2023-10-04T03:48:55.568Z,95849.13
2023-10-04T03:49:59.304Z,95845.09
2023-10-04T03:51:03.199Z,95850.44
2023-10-04T03:52:07.503Z,95849.87
2023-10-04T03:53:11.665Z,95851.64
2023-10-04T03:54:15.005Z,95848.46
2023-10-04T03:55:20.950Z,95851.52
2023-10-04T03:56:26.613Z,95853.92
2023-10-04T03:57:31.209Z,95851.25
2023-10-04T03:58:35.851Z,95853.89
2023-10-04T03:59:39.740Z,95854.14
2023-10-04T04:00:44.826Z,95852.75
2023-10-04T04:01:48.404Z,95854.54
2023-10-04T04:02:53.710Z,95854.48
2023-10-04T04:04:03.551Z,95856.44
2023-10-04T04:05:10.658Z,95856.17
2023-10-04T04:06:16.328Z,95854.80
2023-10-04T04:07:19.997Z,95852.11
2023-10-04T04:08:23.738Z,95853.55
2023-10-04T04:09:29.671Z,95851.95
2023-10-04T04:10:34.206Z,95852.96
2023-10-04T04:11:37.961Z,95850.69
2023-10-04T04:12:42.905Z,95848.09
2023-10-04T04:13:47.460Z,95849.55
2023-10-04T04:14:55.076Z,95849.06
2023-10-04T04:15:59.170Z,95845.49
2023-10-04T04:17:03.670Z,95846.98
2023-10-04T04:18:12.242Z,95841.76
2023-10-04T04:19:16.058Z,95842.34
2023-10-04T04:20:20.761Z,95841.56
2023-10-04T04:21:25.684Z,95845.69
2023-10-04T04:22:29.560Z,95848.30
2023-10-04T04:23:32.986Z,95845.40
2023-10-04T04:24:37.118Z,95844.44
2023-10-04T04:25:41.242Z,95845.70
2023-10-04T04:26:47.600Z,95848.94
2023-10-04T04:27:52.137Z,95846.25
2023-10-04T04:28:56.047Z,95845.54
2023-10-04T04:30:04.264Z,95851.06
2023-10-04T04:31:20.750Z,95852.73
2023-10-04T04:32:28.409Z,95848.92
2023-10-04T04:33:31.756Z,95849.36
2023-10-04T04:34:35.448Z,95847.94
2023-10-04T04:35:47.828Z,95847.92
2023-10-04T04:36:51.791Z,95851.20
2023-10-04T04:37:57.330Z,95855.72
2023-10-04T04:39:06.116Z,95858.23
2023-10-04T04:40:18.180Z,95857.86
2023-10-04T04:41:30.531Z,95857.45
2023-10-04T04:42:36.630Z,95860.23
2023-10-04T04:43:40.135Z,95863.63
2023-10-04T04:44:45.943Z,95864.21
2023-10-04T04:45:51.976Z,95863.45
2023-10-04T04:46:57.289Z,95865.82
2023-10-04T04:48:01.490Z,95867.58
2023-10-04T04:49:05.429Z,95865.47
2023-10-04T04:50:11.226Z,95865.84
2023-10-04T04:51:16.334Z,95868.84
2023-10-04T04:52:19.825Z,95867.52
2023-10-04T04:53:24.604Z,95870.51
2023-10-04T04:54:28.470Z,95869.89
2023-10-04T04:55:33.992Z,95871.03
2023-10-04T04:56:38.553Z,95874.58
2023-10-04T04:57:42.156Z,95872.33
2023-10-04T04:58:52.817Z,95876.08
2023-10-04T04:59:58.086Z,95876.58
2023-10-04T05:01:08.862Z,95879.61
2023-10-04T05:02:12.218Z,95878.27
2023-10-04T05:03:16.177Z,95883.64
2023-10-04T05:04:24.191Z,95883.77
2023-10-04T05:05:30.483Z,95887.63
2023-10-04T05:06:34.210Z,95888.30
2023-10-04T05:07:39.940Z,95892.12
2023-10-04T05:08:44.083Z,95896.42
2023-10-04T05:09:47.974Z,95895.69
2023-10-04T05:10:55.447Z,95895.45
2023-10-04T05:11:59.038Z,95898.16
2023-10-04T05:13:03.126Z,95897.38
2023-10-04T05:14:07.951Z,95895.55
2023-10-04T05:15:23.463Z,95899.95
2023-10-04T05:16:26.912Z,95902.72
2023-10-04T05:17:30.440Z,95899.25
2023-10-04T05:18:36.060Z,95900.44
2023-10-04T05:19:39.760Z,95900.73
2023-10-04T05:20:44.259Z,95899.66
2023-10-04T05:21:47.702Z,95898.73
2023-10-04T05:22:53.093Z,95895.57
2023-10-04T05:23:57.122Z,95892.48
2023-10-04T05:25:00.850Z,95887.39
2023-10-04T05:26:06.324Z,95889.27
2023-10-04T05:27:10.107Z,95888.36
2023-10-04T05:28:15.103Z,95891.65
2023-10-04T05:29:18.624Z,95892.91
2023-10-04T05:30:24.189Z,95892.61
2023-10-04T05:31:27.903Z,95895.56
2023-10-04T05:32:32.019Z,95899.33
2023-10-04T05:33:36.364Z,95901.74
2023-10-04T05:34:40.098Z,95902.77
2023-10-04T05:35:45.598Z,95905.56
2023-10-04T05:36:50.059Z,95908.73
2023-10-04T05:37:53.846Z,95909.15
2023-10-04T05:38:58.065Z,95909.13
2023-10-04T05:40:01.744Z,95906.08
2023-10-04T05:41:05.251Z,95904.13
2023-10-04T05:42:09.813Z,95902.14
2023-10-04T05:43:14.731Z,95905.02
2023-10-04T05:44:18.442Z,95901.20
2023-10-04T05:45:28.058Z,95904.59
2023-10-04T05:46:33.607Z,95904.13
2023-10-04T05:47:37.952Z,95906.32
2023-10-04T05:48:41.635Z,95910.20
2023-10-04T05:49:45.829Z,95916.41
2023-10-04T05:50:50.127Z,95917.64
2023-10-04T05:51:55.172Z,95923.25
2023-10-04T05:53:01.452Z,95924.46
2023-10-04T05:54:10.150Z,95922.54
2023-10-04T05:55:17.649Z,95924.89
2023-10-04T05:56:23.264Z,95924.96
2023-10-04T05:57:29.511Z,95929.48
2023-10-04T05:58:35.335Z,95935.04
2023-10-04T05:59:39.307Z,95934.16
2023-10-04T06:00:53.048Z,95935.46
2023-10-04T06:01:58.130Z,95934.62
2023-10-04T06:03:06.652Z,95938.44
2023-10-04T06:04:13.122Z,95936.44
2023-10-04T06:05:19.826Z,95934.83
2023-10-04T06:06:24.266Z,95932.05
2023-10-04T06:07:30.122Z,95928.54
2023-10-04T06:08:34.918Z,95929.27
2023-10-04T06:09:43.851Z,95928.06
2023-10-04T06:10:47.445Z,95930.91
2023-10-04T06:11:51.599Z,95928.98
2023-10-04T06:12:56.507Z,95930.69
2023-10-04T06:14:00.372Z,95930.73
2023-10-04T06:15:05.282Z,95934.52
2023-10-04T06:16:11.262Z,95933.67
2023-10-04T06:17:16.982Z,95936.20
2023-10-04T06:18:22.975Z,95937.70
2023-10-04T06:19:30.742Z,95939.23
2023-10-04T06:20:36.996Z,95946.16
2023-10-04T06:21:44.025Z,95944.45
2023-10-04T06:22:48.234Z,95942.38
2023-10-04T06:23:53.046Z,95948.38
2023-10-04T06:24:57.366Z,95942.77
2023-10-04T06:26:01.503Z,95944.64
2023-10-04T06:27:06.014Z,95945.80
2023-10-04T06:28:10.686Z,95947.33
2023-10-04T06:29:15.576Z,95945.59
2023-10-04T06:30:23.609Z,95948.47
2023-10-04T06:31:27.538Z,95948.58
2023-10-04T06:32:40.353Z,95944.47
2023-10-04T06:33:43.958Z,95947.83
2023-10-04T06:34:49.016Z,95949.35
2023-10-04T06:35:52.786Z,95950.20
2023-10-04T06:36:56.387Z,95945.79
2023-10-04T06:38:01.096Z,95945.93
2023-10-04T06:39:07.933Z,95948.26
2023-10-04T06:40:17.029Z,95947.45
2023-10-04T06:41:25.126Z,95951.58
2023-10-04T06:42:29.530Z,95954.90
2023-10-04T06:43:32.850Z,95958.41
2023-10-04T06:44:36.769Z,95959.41
2023-10-04T06:45:41.310Z,95959.52
2023-10-04T06:46:45.881Z,95958.13
2023-10-04T06:47:51.038Z,95957.60
2023-10-04T06:48:55.101Z,95962.46
2023-10-04T06:50:03.204Z,95959.27
2023-10-04T06:51:06.650Z,95960.30
2023-10-04T06:52:10.047Z,95964.19
2023-10-04T06:53:14.150Z,95964.07
2023-10-04T06:54:20.989Z,95966.48
2023-10-04T06:55:24.706Z,95966.20
2023-10-04T06:56:28.884Z,95968.95
2023-10-04T06:57:33.188Z,95970.66
2023-10-04T06:58:38.572Z,95968.34
2023-10-04T06:59:41.936Z,95971.25
2023-10-04T07:00:45.693Z,95973.64
2023-10-04T07:01:49.328Z,95977.71
2023-10-04T07:02:55.291Z,95977.42
2023-10-04T07:03:59.650Z,95973.11
2023-10-04T07:05:05.734Z,95973.00
2023-10-04T07:06:09.682Z,95972.64
2023-10-04T07:07:14.859Z,95974.69
2023-10-04T07:08:18.553Z,95971.67
2023-10-04T07:09:22.235Z,95975.11
2023-10-04T07:10:27.136Z,95967.98
2023-10-04T07:11:31.093Z,95965.67
2023-10-04T07:12:34.641Z,95961.36
2023-10-04T07:13:40.604Z,95955.28
2023-10-04T07:14:46.807Z,95956.30
2023-10-04T07:15:53.815Z,95956.08
2023-10-04T07:16:58.141Z,95946.98
2023-10-04T07:18:04.958Z,95949.32
2023-10-04T07:19:08.668Z,95951.58
2023-10-04T07:20:20.512Z,95950.92
2023-10-04T07:21:24.277Z,95950.91
2023-10-04T07:22:33.676Z,95949.63
2023-10-04T07:23:43.443Z,95950.23
2023-10-04T07:24:48.905Z,95949.75
2023-10-04T07:25:52.564Z,95950.58
2023-10-04T07:26:56.094Z,95951.97
2023-10-04T07:28:03.609Z,95957.05
2023-10-04T07:29:08.521Z,95949.27
2023-10-04T07:30:13.867Z,95951.48
2023-10-04T07:31:19.246Z,95949.11
2023-10-04T07:32:23.247Z,95946.33
2023-10-04T07:33:26.802Z,95949.15
2023-10-04T07:34:34.639Z,95947.24
2023-10-04T07:35:40.213Z,95948.88
2023-10-04T07:36:43.900Z,95949.90
2023-10-04T07:37:48.441Z,95946.59
2023-10-04T07:38:52.908Z,95949.72
2023-10-04T07:39:56.832Z,95948.05
2023-10-04T07:41:00.054Z,95945.14
2023-10-04T07:42:04.200Z,95944.11
2023-10-04T07:43:08.012Z,95940.45
2023-10-04T07:44:12.303Z,95943.10
2023-10-04T07:45:18.719Z,95938.14
2023-10-04T07:46:24.817Z,95938.25
2023-10-04T07:47:28.703Z,95935.27
2023-10-04T07:48:32.348Z,95935.55
2023-10-04T07:49:36.832Z,95933.06
2023-10-04T07:50:40.696Z,95933.52
2023-10-04T07:51:44.409Z,95932.49
2023-10-04T07:52:47.709Z,95931.34
2023-10-04T07:53:53.548Z,95930.80
2023-10-04T07:54:59.827Z,95935.59
2023-10-04T07:56:03.729Z,95939.21
2023-10-04T07:57:07.818Z,95939.41
2023-10-04T07:58:12.892Z,95936.39
2023-10-04T07:59:18.472Z,95935.86
2023-10-04T08:00:22.377Z,95933.09
2023-10-04T08:01:25.698Z,95931.56
2023-10-04T08:02:30.977Z,95931.75
2023-10-04T08:03:34.881Z,95931.53
2023-10-04T08:04:38.640Z,95934.87
2023-10-04T08:05:43.706Z,95934.80
2023-10-04T08:06:52.630Z,95936.83
2023-10-04T08:08:00.000Z,95939.04
2023-10-04T08:09:07.032Z,95935.86
2023-10-04T08:10:14.918Z,95935.87
2023-10-04T08:11:18.817Z,95935.48
2023-10-04T08:12:22.423Z,95942.25
2023-10-04T08:13:27.937Z,95942.53
2023-10-04T08:14:31.970Z,95943.30
2023-10-04T08:15:37.533Z,95943.05
2023-10-04T08:16:42.254Z,95943.92
2023-10-04T08:17:51.731Z,95939.05
2023-10-04T08:18:56.707Z,95939.94
2023-10-04T08:20:00.132Z,95937.71
2023-10-04T08:21:06.642Z,95935.66
2023-10-04T08:22:10.307Z,95938.41
2023-10-04T08:23:14.735Z,95933.42
2023-10-04T08:24:19.127Z,95936.64
2023-10-04T08:25:29.663Z,95931.98
2023-10-04T08:26:34.281Z,95928.40
2023-10-04T08:27:39.777Z,95924.60
2023-10-04T08:28:44.974Z,95926.52
2023-10-04T08:29:49.129Z,95926.91
2023-10-04T08:30:52.584Z,95921.75
2023-10-04T08:31:58.172Z,95926.92
2023-10-04T08:33:03.149Z,95928.35
2023-10-04T08:34:06.860Z,95927.70
2023-10-04T08:35:22.021Z,95926.17
2023-10-04T08:36:25.266Z,95924.60
2023-10-04T08:37:29.157Z,95924.48
2023-10-04T08:38:32.490Z,95923.88
2023-10-04T08:39:37.540Z,95923.39
2023-10-04T08:40:44.111Z,95921.13
2023-10-04T08:41:49.261Z,95921.34
2023-10-04T08:42:53.262Z,95918.42
2023-10-04T08:43:57.158Z,95919.74
2023-10-04T08:45:01.051Z,95917.64
2023-10-04T08:46:09.610Z,95912.86
2023-10-04T08:47:16.838Z,95914.10
2023-10-04T08:48:22.502Z,95912.24
2023-10-04T08:49:28.761Z,95912.40
2023-10-04T08:50:39.542Z,95912.81
2023-10-04T08:51:51.133Z,95913.09
2023-10-04T08:53:05.101Z,95913.39
2023-10-04T08:54:15.701Z,95906.83
2023-10-04T08:55:22.822Z,95908.77
2023-10-04T08:56:34.689Z,95911.41
2023-10-04T08:57:39.857Z,95916.94
2023-10-04T08:58:44.882Z,95914.57
2023-10-04T08:59:50.631Z,95915.02
2023-10-04T09:00:54.969Z,95914.05
2023-10-04T09:02:02.312Z,95912.22
2023-10-04T09:03:07.989Z,95914.25
2023-10-04T09:04:19.122Z,95913.59
2023-10-04T09:05:27.922Z,95912.80
2023-10-04T09:06:31.541Z,95910.81
2023-10-04T09:07:36.407Z,95909.20
2023-10-04T09:08:41.416Z,95905.46
2023-10-04T09:09:47.429Z,95902.73
2023-10-04T09:10:55.015Z,95901.07
2023-10-04T09:11:59.262Z,95900.49
2023-10-04T09:13:05.202Z,95896.33
2023-10-04T09:14:09.372Z,95897.08
2023-10-04T09:15:14.435Z,95894.91
2023-10-04T09:16:30.090Z,95896.85
2023-10-04T09:17:57.793Z,95895.67
2023-10-04T09:19:09.514Z,95897.38
2023-10-04T09:20:16.387Z,95897.73
2023-10-04T09:21:19.554Z,95896.13
2023-10-04T09:22:32.200Z,95901.33
2023-10-04T09:23:36.155Z,95902.05
2023-10-04T09:24:56.954Z,95904.77
2023-10-04T09:26:00.368Z,95906.06
2023-10-04T09:27:05.193Z,95903.23
2023-10-04T09:28:10.635Z,95903.86
2023-10-04T09:29:17.965Z,95905.11
2023-10-04T09:30:23.062Z,95905.25
2023-10-04T09:31:27.708Z,95902.25
2023-10-04T09:32:43.691Z,95906.34
2023-10-04T09:33:47.487Z,95908.77
2023-10-04T09:35:00.889Z,95904.80
2023-10-04T09:36:07.436Z,95906.27
2023-10-04T09:37:20.477Z,95904.08
2023-10-04T09:38:29.920Z,95904.09
2023-10-04T09:39:33.732Z,95904.55
2023-10-04T09:40:37.183Z,95903.70
2023-10-04T09:41:42.747Z,95906.98
2023-10-04T09:42:48.058Z,95905.06
2023-10-04T09:43:54.598Z,95903.91
2023-10-04T09:45:10.377Z,95900.20
2023-10-04T09:46:14.310Z,95901.88
2023-10-04T09:47:18.546Z,95904.98
2023-10-04T09:48:24.044Z,95904.52
2023-10-04T09:49:36.313Z,95909.08
2023-10-04T09:50:41.306Z,95912.73
2023-10-04T09:51:47.893Z,95906.90
2023-10-04T09:52:52.032Z,95902.67
2023-10-04T09:53:56.171Z,95905.15
2023-10-04T09:54:59.750Z,95908.00
2023-10-04T09:56:06.823Z,95911.68
2023-10-04T09:57:14.933Z,95906.41
2023-10-04T09:58:23.661Z,95905.63
2023-10-04T09:59:32.482Z,95905.01
2023-10-04T10:00:35.624Z,95905.06
2023-10-04T10:01:40.322Z,95907.41
2023-10-04T10:02:45.796Z,95909.87
2023-10-04T10:03:56.273Z,95905.78
2023-10-04T10:05:03.005Z,95902.98
2023-10-04T10:06:10.464Z,95904.71
2023-10-04T10:07:21.355Z,95904.37
2023-10-04T10:08:32.585Z,95905.88
2023-10-04T10:09:59.747Z,95908.21
2023-10-04T10:11:07.533Z,95906.73
2023-10-04T10:12:15.369Z,95907.42
2023-10-04T10:13:22.608Z,95902.66
2023-10-04T10:14:30.692Z,95903.56
2023-10-04T10:15:34.797Z,95901.02
2023-10-04T10:16:42.911Z,95900.55
2023-10-04T10:17:50.169Z,95899.40
2023-10-04T10:18:58.107Z,95896.75
2023-10-04T10:20:04.841Z,95892.75
2023-10-04T10:21:09.410Z,95898.56
2023-10-04T10:22:17.798Z,95884.07
2023-10-04T10:23:20.837Z,95886.62
2023-10-04T10:24:24.606Z,95881.75
2023-10-04T10:25:31.007Z,95883.96
2023-10-04T10:26:34.368Z,95878.55
2023-10-04T10:27:38.341Z,95879.96
2023-10-04T10:28:43.126Z,95878.97
2023-10-04T10:29:50.187Z,95877.89
2023-10-04T10:31:03.086Z,95878.39
2023-10-04T10:32:23.289Z,95871.89
2023-10-04T10:33:27.055Z,95870.71
2023-10-04T10:34:31.298Z,95868.82
2023-10-04T10:36:00.517Z,95868.66
2023-10-04T10:37:16.326Z,95861.70
2023-10-04T10:38:45.918Z,95866.33
2023-10-04T10:39:51.478Z,95865.45
2023-10-04T10:40:55.530Z,95859.63
2023-10-04T10:41:59.506Z,95859.55
2023-10-04T10:43:09.428Z,95858.52
2023-10-04T10:44:20.366Z,95864.41
2023-10-04T10:45:29.230Z,95856.27
2023-10-04T10:46:33.320Z,95856.90
2023-10-04T10:47:49.659Z,95857.92
2023-10-04T10:49:03.900Z,95852.39
2023-10-04T10:50:38.254Z,95860.77
2023-10-04T10:51:43.989Z,95858.20
2023-10-04T10:52:49.416Z,95863.59
2023-10-04T10:53:53.020Z,95856.89
2023-10-04T10:54:57.607Z,95854.17
2023-10-04T10:56:02.720Z,95852.66
2023-10-04T10:57:07.681Z,95849.05
2023-10-04T10:58:12.670Z,95849.52
2023-10-04T10:59:16.042Z,95851.02
2023-10-04T11:00:19.204Z,95851.12
2023-10-04T11:01:25.050Z,95850.59
2023-10-04T11:02:29.247Z,95848.52
2023-10-04T11:03:33.332Z,95850.20
2023-10-04T11:04:36.814Z,95853.79
2023-10-04T11:05:42.659Z,95850.27
2023-10-04T11:06:46.757Z,95847.15
2023-10-04T11:07:53.219Z,95851.69
2023-10-04T11:08:57.007Z,95852.23
2023-10-04T11:10:01.978Z,95855.44
2023-10-04T11:11:07.628Z,95851.30
2023-10-04T11:12:13.654Z,95853.38
2023-10-04T11:13:18.735Z,95857.15
2023-10-04T11:14:23.981Z,95857.80
2023-10-04T11:15:28.933Z,95855.08
2023-10-04T11:16:34.669Z,95849.63
2023-10-04T11:17:41.714Z,95852.10
2023-10-04T11:18:48.105Z,95847.15
2023-10-04T11:19:51.744Z,95846.91
2023-10-04T11:21:05.265Z,95847.40
2023-10-04T11:22:09.029Z,95851.40
2023-10-04T11:23:12.560Z,95851.70
2023-10-04T11:24:16.537Z,95851.95
2023-10-04T11:25:20.766Z,95850.92
2023-10-04T11:26:25.743Z,95848.45
2023-10-04T11:27:30.840Z,95846.30
2023-10-04T11:28:35.809Z,95850.20
2023-10-04T11:29:41.946Z,95851.40
2023-10-04T11:30:47.751Z,95853.58
2023-10-04T11:31:53.741Z,95850.45
2023-10-04T11:32:59.211Z,95853.39
2023-10-04T11:34:05.277Z,95856.00
2023-10-04T11:35:12.616Z,95853.66
2023-10-04T11:36:22.103Z,95856.36
2023-10-04T11:37:29.922Z,95852.68
2023-10-04T11:38:33.663Z,95854.34
2023-10-04T11:39:40.890Z,95852.25
2023-10-04T11:40:48.877Z,95853.19
2023-10-04T11:41:51.965Z,95851.33
2023-10-04T11:43:02.460Z,95856.84
2023-10-04T11:44:08.545Z,95853.25
2023-10-04T11:45:21.822Z,95855.95
2023-10-04T11:46:25.444Z,95851.64
2023-10-04T11:47:32.845Z,95855.70
2023-10-04T11:48:36.818Z,95857.15
2023-10-04T11:49:56.208Z,95854.83
2023-10-04T11:50:59.529Z,95853.05
2023-10-04T11:52:06.080Z,95850.26
2023-10-04T11:53:12.719Z,95852.24
2023-10-04T11:54:15.963Z,95854.72
2023-10-04T11:55:28.613Z,95848.08
2023-10-04T11:56:41.383Z,95846.80
2023-10-04T11:57:45.522Z,95850.77
2023-10-04T11:58:52.006Z,95850.34
2023-10-04T11:59:57.986Z,95849.38
2023-10-04T12:01:07.833Z,95851.53
2023-10-04T12:02:11.278Z,95853.78
2023-10-04T12:03:15.265Z,95851.83
2023-10-04T12:04:19.037Z,95847.17
2023-10-04T12:05:23.105Z,95849.67
2023-10-04T12:06:27.147Z,95848.16
2023-10-04T12:07:33.565Z,95845.60
2023-10-04T12:08:40.321Z,95846.55
2023-10-04T12:09:44.402Z,95842.82
2023-10-04T12:10:48.309Z,95848.70
2023-10-04T12:11:52.067Z,95843.77
2023-10-04T12:12:58.516Z,95842.97
2023-10-04T12:14:02.107Z,95842.40
2023-10-04T12:15:08.625Z,95846.59
2023-10-04T12:16:14.914Z,95841.26
2023-10-04T12:17:19.990Z,95841.33
2023-10-04T12:18:23.494Z,95838.91
2023-10-04T12:19:27.337Z,95835.98
2023-10-04T12:20:37.583Z,95833.13
2023-10-04T12:21:42.390Z,95832.83
2023-10-04T12:22:46.408Z,95833.95
2023-10-04T12:23:50.500Z,95834.99
2023-10-04T12:24:55.182Z,95830.36
2023-10-04T12:25:58.646Z,95831.00
2023-10-04T12:27:02.272Z,95833.23
2023-10-04T12:28:09.213Z,95833.48
2023-10-04T12:29:14.158Z,95833.30
2023-10-04T12:30:19.407Z,95836.09
2023-10-04T12:31:24.719Z,95831.30
2023-10-04T12:32:30.725Z,95831.79
2023-10-04T12:33:37.567Z,95828.29
2023-10-04T12:34:41.203Z,95829.11
2023-10-04T12:35:44.294Z,95827.51
2023-10-04T12:37:57.925Z,95825.44
2023-10-04T12:39:06.109Z,95827.31
2023-10-04T12:40:33.280Z,95823.07
2023-10-04T12:41:37.860Z,95823.79
2023-10-04T12:42:41.367Z,95824.10
2023-10-04T12:43:45.617Z,95823.05
2023-10-04T12:44:49.261Z,95819.77
2023-10-04T12:45:57.632Z,95823.04
2023-10-04T12:47:03.117Z,95818.33
2023-10-04T12:48:08.660Z,95822.31
2023-10-04T12:49:12.192Z,95821.75
2023-10-04T12:50:16.308Z,95822.14
2023-10-04T12:51:20.340Z,95819.20
2023-10-04T12:52:26.411Z,95823.19
2023-10-04T12:53:30.726Z,95823.64
2023-10-04T12:54:35.485Z,95825.61
2023-10-04T12:55:40.733Z,95822.58